sensor_id;sensor_type;location;lat;lon;timestamp;P1;durP1;ratioP1;P2;durP2;ratioP2
46713;SDS011;32445;51.376;10.874;2023-12-04T00:04:27;18.63;;;8.38;;
46713;SDS011;32445;51.376;10.874;2023-12-04T00:09:27;17.23;;;7.83;;
46713;SDS011;32445;51.376;10.874;2023-12-04T00:14:28;18.55;;;9.07;;
46713;SDS011;32445;51.376;10.874;2023-12-04T00:19:28;17.97;;;7.97;;
46713;SDS011;32445;51.376;10.874;2023-12-04T00:24:28;16.63;;;8.10;;
46713;SDS011;32445;51.376;10.874;2023-12-04T00:29:29;20.67;;;9.50;;
46713;SDS011;32445;51.376;10.874;2023-12-04T00:34:29;17.58;;;8.40;;
46713;SDS011;32445;51.376;10.874;2023-12-04T00:39:29;15.30;;;6.95;;
46713;SDS011;32445;51.376;10.874;2023-12-04T00:44:30;17.17;;;7.97;;
46713;SDS011;32445;51.376;10.874;2023-12-04T00:49:30;17.23;;;8.90;;
46713;SDS011;32445;51.376;10.874;2023-12-04T00:54:30;19.80;;;8.07;;
46713;SDS011;32445;51.376;10.874;2023-12-04T00:59:31;20.10;;;8.33;;
46713;SDS011;32445;51.376;10.874;2023-12-04T01:04:31;20.70;;;9.33;;
46713;SDS011;32445;51.376;10.874;2023-12-04T01:09:31;20.93;;;9.00;;
46713;SDS011;32445;51.376;10.874;2023-12-04T01:14:35;20.15;;;8.98;;
46713;SDS011;32445;51.376;10.874;2023-12-04T01:19:38;17.23;;;7.55;;
46713;SDS011;32445;51.376;10.874;2023-12-04T01:24:38;18.42;;;9.75;;
46713;SDS011;32445;51.376;10.874;2023-12-04T01:29:39;20.60;;;9.27;;
46713;SDS011;32445;51.376;10.874;2023-12-04T01:34:39;19.83;;;8.37;;
46713;SDS011;32445;51.376;10.874;2023-12-04T01:39:40;21.77;;;8.27;;
46713;SDS011;32445;51.376;10.874;2023-12-04T01:44:40;20.00;;;8.57;;
46713;SDS011;32445;51.376;10.874;2023-12-04T01:49:40;19.63;;;9.70;;
46713;SDS011;32445;51.376;10.874;2023-12-04T01:54:41;18.05;;;9.02;;
46713;SDS011;32445;51.376;10.874;2023-12-04T01:59:42;19.88;;;9.00;;
46713;SDS011;32445;51.376;10.874;2023-12-04T02:04:43;18.08;;;8.68;;
46713;SDS011;32445;51.376;10.874;2023-12-04T02:09:43;18.55;;;8.98;;
46713;SDS011;32445;51.376;10.874;2023-12-04T02:14:44;20.50;;;9.00;;
46713;SDS011;32445;51.376;10.874;2023-12-04T02:19:44;19.63;;;8.93;;
46713;SDS011;32445;51.376;10.874;2023-12-04T02:24:47;21.00;;;8.53;;
46713;SDS011;32445;51.376;10.874;2023-12-04T02:29:52;20.98;;;9.25;;
46713;SDS011;32445;51.376;10.874;2023-12-04T02:34:58;22.35;;;9.20;;
46713;SDS011;32445;51.376;10.874;2023-12-04T02:40:02;21.00;;;9.30;;
46713;SDS011;32445;51.376;10.874;2023-12-04T02:45:04;19.17;;;9.05;;
46713;SDS011;32445;51.376;10.874;2023-12-04T02:50:04;21.63;;;8.73;;
46713;SDS011;32445;51.376;10.874;2023-12-04T02:55:05;20.88;;;8.93;;
46713;SDS011;32445;51.376;10.874;2023-12-04T03:00:09;17.75;;;8.48;;
46713;SDS011;32445;51.376;10.874;2023-12-04T03:05:09;19.77;;;8.50;;
46713;SDS011;32445;51.376;10.874;2023-12-04T03:10:10;21.50;;;9.15;;
46713;SDS011;32445;51.376;10.874;2023-12-04T03:15:11;20.60;;;8.33;;
46713;SDS011;32445;51.376;10.874;2023-12-04T03:20:13;18.88;;;8.00;;
46713;SDS011;32445;51.376;10.874;2023-12-04T03:25:13;21.17;;;9.82;;
46713;SDS011;32445;51.376;10.874;2023-12-04T03:30:13;19.75;;;9.43;;
46713;SDS011;32445;51.376;10.874;2023-12-04T03:35:14;21.17;;;9.07;;
46713;SDS011;32445;51.376;10.874;2023-12-04T03:40:15;20.20;;;8.17;;
46713;SDS011;32445;51.376;10.874;2023-12-04T03:45:16;16.83;;;8.07;;
46713;SDS011;32445;51.376;10.874;2023-12-04T03:50:17;21.40;;;8.93;;
46713;SDS011;32445;51.376;10.874;2023-12-04T03:55:17;19.10;;;9.50;;
46713;SDS011;32445;51.376;10.874;2023-12-04T04:00:19;21.58;;;9.23;;
46713;SDS011;32445;51.376;10.874;2023-12-04T04:05:20;22.70;;;10.20;;
46713;SDS011;32445;51.376;10.874;2023-12-04T04:10:20;16.73;;;8.60;;
46713;SDS011;32445;51.376;10.874;2023-12-04T04:15:20;22.50;;;9.97;;
46713;SDS011;32445;51.376;10.874;2023-12-04T04:20:21;21.50;;;9.67;;
46713;SDS011;32445;51.376;10.874;2023-12-04T04:25:21;19.93;;;8.77;;
46713;SDS011;32445;51.376;10.874;2023-12-04T04:30:23;19.45;;;8.63;;
46713;SDS011;32445;51.376;10.874;2023-12-04T04:35:24;19.40;;;8.43;;
46713;SDS011;32445;51.376;10.874;2023-12-04T04:40:24;17.17;;;8.07;;
46713;SDS011;32445;51.376;10.874;2023-12-04T04:45:25;19.93;;;7.67;;
46713;SDS011;32445;51.376;10.874;2023-12-04T04:50:25;14.47;;;7.10;;
46713;SDS011;32445;51.376;10.874;2023-12-04T04:55:25;15.67;;;7.13;;
46713;SDS011;32445;51.376;10.874;2023-12-04T05:00:26;16.50;;;6.50;;
46713;SDS011;32445;51.376;10.874;2023-12-04T05:05:26;13.50;;;6.20;;
46713;SDS011;32445;51.376;10.874;2023-12-04T05:10:27;15.63;;;7.37;;
46713;SDS011;32445;51.376;10.874;2023-12-04T05:15:27;13.97;;;6.23;;
46713;SDS011;32445;51.376;10.874;2023-12-04T05:20:27;12.20;;;6.47;;
46713;SDS011;32445;51.376;10.874;2023-12-04T05:25:28;13.13;;;6.73;;
46713;SDS011;32445;51.376;10.874;2023-12-04T05:30:28;13.50;;;6.20;;
46713;SDS011;32445;51.376;10.874;2023-12-04T05:35:28;15.67;;;6.83;;
46713;SDS011;32445;51.376;10.874;2023-12-04T05:40:29;16.30;;;7.37;;
46713;SDS011;32445;51.376;10.874;2023-12-04T05:45:29;11.13;;;5.43;;
46713;SDS011;32445;51.376;10.874;2023-12-04T05:50:30;14.20;;;5.73;;
46713;SDS011;32445;51.376;10.874;2023-12-04T05:55:33;13.77;;;6.43;;
46713;SDS011;32445;51.376;10.874;2023-12-04T06:00:33;13.20;;;6.13;;
46713;SDS011;32445;51.376;10.874;2023-12-04T06:05:33;10.80;;;6.23;;
46713;SDS011;32445;51.376;10.874;2023-12-04T06:10:34;12.37;;;5.43;;
46713;SDS011;32445;51.376;10.874;2023-12-04T06:15:35;14.95;;;6.28;;
46713;SDS011;32445;51.376;10.874;2023-12-04T06:20:35;13.37;;;6.70;;
46713;SDS011;32445;51.376;10.874;2023-12-04T06:25:35;15.73;;;6.37;;
46713;SDS011;32445;51.376;10.874;2023-12-04T06:30:38;12.05;;;5.93;;
46713;SDS011;32445;51.376;10.874;2023-12-04T06:35:41;11.77;;;5.95;;
46713;SDS011;32445;51.376;10.874;2023-12-04T06:40:42;11.90;;;5.85;;
46713;SDS011;32445;51.376;10.874;2023-12-04T06:45:42;10.35;;;5.07;;
46713;SDS011;32445;51.376;10.874;2023-12-04T06:50:43;10.98;;;5.53;;
46713;SDS011;32445;51.376;10.874;2023-12-04T06:55:43;13.03;;;5.70;;
46713;SDS011;32445;51.376;10.874;2023-12-04T07:00:46;9.30;;;5.10;;
46713;SDS011;32445;51.376;10.874;2023-12-04T07:05:50;15.05;;;6.20;;
46713;SDS011;32445;51.376;10.874;2023-12-04T07:10:50;14.97;;;6.40;;
46713;SDS011;32445;51.376;10.874;2023-12-04T07:15:50;12.27;;;5.47;;
46713;SDS011;32445;51.376;10.874;2023-12-04T07:20:51;14.27;;;6.32;;
46713;SDS011;32445;51.376;10.874;2023-12-04T07:25:51;13.10;;;5.47;;
46713;SDS011;32445;51.376;10.874;2023-12-04T07:30:54;14.35;;;5.40;;
46713;SDS011;32445;51.376;10.874;2023-12-04T07:35:55;13.07;;;6.43;;
46713;SDS011;32445;51.376;10.874;2023-12-04T07:40:56;12.73;;;5.93;;
46713;SDS011;32445;51.376;10.874;2023-12-04T07:45:56;11.50;;;6.10;;
46713;SDS011;32445;51.376;10.874;2023-12-04T07:50:57;12.52;;;6.35;;
46713;SDS011;32445;51.376;10.874;2023-12-04T07:56:00;13.47;;;6.70;;
46713;SDS011;32445;51.376;10.874;2023-12-04T08:01:03;10.18;;;5.82;;
46713;SDS011;32445;51.376;10.874;2023-12-04T08:06:04;12.65;;;6.60;;
46713;SDS011;32445;51.376;10.874;2023-12-04T08:11:05;13.55;;;6.30;;
46713;SDS011;32445;51.376;10.874;2023-12-04T08:16:12;12.40;;;6.13;;
46713;SDS011;32445;51.376;10.874;2023-12-04T08:21:14;16.60;;;6.68;;
46713;SDS011;32445;51.376;10.874;2023-12-04T08:26:20;13.97;;;6.83;;
46713;SDS011;32445;51.376;10.874;2023-12-04T08:31:24;15.00;;;6.43;;
46713;SDS011;32445;51.376;10.874;2023-12-04T08:36:24;12.67;;;6.43;;
46713;SDS011;32445;51.376;10.874;2023-12-04T08:41:25;16.23;;;7.00;;
46713;SDS011;32445;51.376;10.874;2023-12-04T08:46:28;12.90;;;5.82;;
46713;SDS011;32445;51.376;10.874;2023-12-04T08:51:28;13.40;;;5.97;;
46713;SDS011;32445;51.376;10.874;2023-12-04T08:56:28;12.80;;;6.27;;
46713;SDS011;32445;51.376;10.874;2023-12-04T09:01:29;11.82;;;5.85;;
46713;SDS011;32445;51.376;10.874;2023-12-04T09:06:29;11.70;;;5.90;;
46713;SDS011;32445;51.376;10.874;2023-12-04T09:11:30;13.90;;;5.88;;
46713;SDS011;32445;51.376;10.874;2023-12-04T09:16:30;10.20;;;5.70;;
46713;SDS011;32445;51.376;10.874;2023-12-04T09:21:31;13.03;;;5.93;;
46713;SDS011;32445;51.376;10.874;2023-12-04T09:26:31;12.20;;;5.30;;
46713;SDS011;32445;51.376;10.874;2023-12-04T09:31:32;11.43;;;5.00;;
46713;SDS011;32445;51.376;10.874;2023-12-04T09:36:32;10.45;;;5.53;;
46713;SDS011;32445;51.376;10.874;2023-12-04T09:41:32;11.77;;;5.00;;
46713;SDS011;32445;51.376;10.874;2023-12-04T09:46:33;9.27;;;4.45;;
46713;SDS011;32445;51.376;10.874;2023-12-04T09:51:34;8.35;;;4.35;;
46713;SDS011;32445;51.376;10.874;2023-12-04T09:56:36;7.93;;;4.55;;
46713;SDS011;32445;51.376;10.874;2023-12-04T10:01:39;7.97;;;4.20;;
46713;SDS011;32445;51.376;10.874;2023-12-04T10:06:40;9.35;;;4.47;;
46713;SDS011;32445;51.376;10.874;2023-12-04T10:11:41;9.45;;;4.70;;
46713;SDS011;32445;51.376;10.874;2023-12-04T10:16:42;8.95;;;4.05;;
46713;SDS011;32445;51.376;10.874;2023-12-04T10:21:43;7.07;;;3.77;;
46713;SDS011;32445;51.376;10.874;2023-12-04T10:26:51;7.80;;;3.90;;
46713;SDS011;32445;51.376;10.874;2023-12-04T10:36:52;8.38;;;4.03;;
46713;SDS011;32445;51.376;10.874;2023-12-04T10:42:02;10.07;;;4.45;;
46713;SDS011;32445;51.376;10.874;2023-12-04T10:47:03;8.82;;;4.88;;
46713;SDS011;32445;51.376;10.874;2023-12-04T10:52:04;12.45;;;5.28;;
46713;SDS011;32445;51.376;10.874;2023-12-04T10:57:05;9.07;;;4.80;;
46713;SDS011;32445;51.376;10.874;2023-12-04T11:02:06;12.02;;;4.65;;
46713;SDS011;32445;51.376;10.874;2023-12-04T11:07:13;8.07;;;4.70;;
46713;SDS011;32445;51.376;10.874;2023-12-04T11:12:14;8.88;;;4.78;;
46713;SDS011;32445;51.376;10.874;2023-12-04T11:17:21;10.13;;;4.57;;
46713;SDS011;32445;51.376;10.874;2023-12-04T11:22:25;13.55;;;5.10;;
46713;SDS011;32445;51.376;10.874;2023-12-04T11:27:25;12.32;;;5.20;;
46713;SDS011;32445;51.376;10.874;2023-12-04T11:32:27;11.30;;;5.67;;
46713;SDS011;32445;51.376;10.874;2023-12-04T11:37:28;13.07;;;5.65;;
46713;SDS011;32445;51.376;10.874;2023-12-04T11:42:30;10.75;;;5.70;;
46713;SDS011;32445;51.376;10.874;2023-12-04T11:47:30;9.30;;;5.35;;
46713;SDS011;32445;51.376;10.874;2023-12-04T11:52:33;7.85;;;3.65;;
46713;SDS011;32445;51.376;10.874;2023-12-04T11:57:37;6.22;;;3.47;;
46713;SDS011;32445;51.376;10.874;2023-12-04T12:02:46;8.65;;;4.22;;
46713;SDS011;32445;51.376;10.874;2023-12-04T12:07:53;9.95;;;4.43;;
46713;SDS011;32445;51.376;10.874;2023-12-04T12:12:54;8.30;;;4.35;;
46713;SDS011;32445;51.376;10.874;2023-12-04T12:17:55;10.18;;;4.50;;
46713;SDS011;32445;51.376;10.874;2023-12-04T12:22:56;8.20;;;4.03;;
46713;SDS011;32445;51.376;10.874;2023-12-04T12:27:56;8.57;;;4.57;;
46713;SDS011;32445;51.376;10.874;2023-12-04T12:32:56;7.60;;;4.20;;
46713;SDS011;32445;51.376;10.874;2023-12-04T12:37:57;8.15;;;4.15;;
46713;SDS011;32445;51.376;10.874;2023-12-04T12:43:08;8.68;;;4.22;;
46713;SDS011;32445;51.376;10.874;2023-12-04T12:48:12;9.07;;;4.22;;
46713;SDS011;32445;51.376;10.874;2023-12-04T12:53:17;8.70;;;4.25;;
46713;SDS011;32445;51.376;10.874;2023-12-04T12:58:28;8.38;;;4.20;;
46713;SDS011;32445;51.376;10.874;2023-12-04T13:03:30;9.50;;;4.13;;
46713;SDS011;32445;51.376;10.874;2023-12-04T13:08:31;9.07;;;4.35;;
46713;SDS011;32445;51.376;10.874;2023-12-04T13:13:32;7.40;;;4.30;;
46713;SDS011;32445;51.376;10.874;2023-12-04T13:18:32;8.70;;;4.43;;
46713;SDS011;32445;51.376;10.874;2023-12-04T13:23:35;9.40;;;4.47;;
46713;SDS011;32445;51.376;10.874;2023-12-04T13:28:36;8.23;;;4.77;;
46713;SDS011;32445;51.376;10.874;2023-12-04T13:33:37;8.32;;;4.68;;
46713;SDS011;32445;51.376;10.874;2023-12-04T13:38:38;10.97;;;4.43;;
46713;SDS011;32445;51.376;10.874;2023-12-04T13:43:38;8.80;;;4.40;;
46713;SDS011;32445;51.376;10.874;2023-12-04T13:48:50;8.32;;;4.18;;
46713;SDS011;32445;51.376;10.874;2023-12-04T13:53:51;7.37;;;3.93;;
46713;SDS011;32445;51.376;10.874;2023-12-04T13:58:56;7.75;;;4.03;;
46713;SDS011;32445;51.376;10.874;2023-12-04T14:03:57;8.60;;;4.47;;
46713;SDS011;32445;51.376;10.874;2023-12-04T14:09:04;8.70;;;3.70;;
46713;SDS011;32445;51.376;10.874;2023-12-04T14:14:11;7.90;;;4.13;;
46713;SDS011;32445;51.376;10.874;2023-12-04T14:19:15;7.60;;;3.80;;
46713;SDS011;32445;51.376;10.874;2023-12-04T14:24:17;7.75;;;3.53;;
46713;SDS011;32445;51.376;10.874;2023-12-04T14:29:18;9.30;;;3.97;;
46713;SDS011;32445;51.376;10.874;2023-12-04T14:34:18;7.03;;;3.90;;
46713;SDS011;32445;51.376;10.874;2023-12-04T14:39:18;6.67;;;3.93;;
46713;SDS011;32445;51.376;10.874;2023-12-04T14:44:19;7.72;;;3.58;;
46713;SDS011;32445;51.376;10.874;2023-12-04T14:49:20;6.20;;;3.20;;
46713;SDS011;32445;51.376;10.874;2023-12-04T14:54:20;6.50;;;3.17;;
46713;SDS011;32445;51.376;10.874;2023-12-04T14:59:37;7.40;;;3.58;;
46713;SDS011;32445;51.376;10.874;2023-12-04T15:04:55;7.03;;;3.10;;
46713;SDS011;32445;51.376;10.874;2023-12-04T15:10:04;6.30;;;2.97;;
46713;SDS011;32445;51.376;10.874;2023-12-04T15:15:05;6.10;;;3.30;;
46713;SDS011;32445;51.376;10.874;2023-12-04T15:20:06;6.72;;;3.58;;
46713;SDS011;32445;51.376;10.874;2023-12-04T15:25:29;7.45;;;3.75;;
46713;SDS011;32445;51.376;10.874;2023-12-04T15:30:30;9.40;;;3.97;;
46713;SDS011;32445;51.376;10.874;2023-12-04T15:35:30;8.30;;;3.73;;
46713;SDS011;32445;51.376;10.874;2023-12-04T15:40:30;6.27;;;3.57;;
46713;SDS011;32445;51.376;10.874;2023-12-04T15:45:31;6.57;;;3.58;;
46713;SDS011;32445;51.376;10.874;2023-12-04T15:50:32;5.93;;;3.47;;
46713;SDS011;32445;51.376;10.874;2023-12-04T15:55:32;7.75;;;3.25;;
46713;SDS011;32445;51.376;10.874;2023-12-04T16:00:32;6.60;;;3.03;;
46713;SDS011;32445;51.376;10.874;2023-12-04T16:05:34;7.57;;;3.40;;
46713;SDS011;32445;51.376;10.874;2023-12-04T16:10:35;5.30;;;3.20;;
46713;SDS011;32445;51.376;10.874;2023-12-04T16:15:36;6.70;;;3.83;;
46713;SDS011;32445;51.376;10.874;2023-12-04T16:20:36;8.63;;;4.18;;
46713;SDS011;32445;51.376;10.874;2023-12-04T16:25:37;8.10;;;4.00;;
46713;SDS011;32445;51.376;10.874;2023-12-04T16:30:40;6.93;;;4.10;;
46713;SDS011;32445;51.376;10.874;2023-12-04T16:35:40;6.32;;;3.85;;
46713;SDS011;32445;51.376;10.874;2023-12-04T16:40:41;7.87;;;3.97;;
46713;SDS011;32445;51.376;10.874;2023-12-04T16:45:41;9.43;;;4.57;;
46713;SDS011;32445;51.376;10.874;2023-12-04T16:50:42;9.07;;;5.00;;
46713;SDS011;32445;51.376;10.874;2023-12-04T16:55:42;11.80;;;5.23;;
46713;SDS011;32445;51.376;10.874;2023-12-04T17:00:42;11.00;;;5.87;;
46713;SDS011;32445;51.376;10.874;2023-12-04T17:05:43;9.80;;;4.70;;
46713;SDS011;32445;51.376;10.874;2023-12-04T17:10:43;8.57;;;4.90;;
46713;SDS011;32445;51.376;10.874;2023-12-04T17:15:44;8.60;;;4.40;;
46713;SDS011;32445;51.376;10.874;2023-12-04T17:20:44;9.67;;;5.80;;
46713;SDS011;32445;51.376;10.874;2023-12-04T17:25:46;9.17;;;5.53;;
46713;SDS011;32445;51.376;10.874;2023-12-04T17:30:46;8.27;;;4.50;;
46713;SDS011;32445;51.376;10.874;2023-12-04T17:35:47;8.18;;;4.90;;
46713;SDS011;32445;51.376;10.874;2023-12-04T17:40:47;9.93;;;4.73;;
46713;SDS011;32445;51.376;10.874;2023-12-04T17:45:48;9.90;;;5.33;;
46713;SDS011;32445;51.376;10.874;2023-12-04T17:50:48;8.70;;;4.20;;
46713;SDS011;32445;51.376;10.874;2023-12-04T17:55:49;6.63;;;3.93;;
46713;SDS011;32445;51.376;10.874;2023-12-04T18:00:49;8.10;;;3.80;;
46713;SDS011;32445;51.376;10.874;2023-12-04T18:05:52;5.97;;;3.30;;
46713;SDS011;32445;51.376;10.874;2023-12-04T18:10:52;9.13;;;4.00;;
46713;SDS011;32445;51.376;10.874;2023-12-04T18:15:52;8.73;;;3.90;;
46713;SDS011;32445;51.376;10.874;2023-12-04T18:20:54;7.32;;;4.15;;
46713;SDS011;32445;51.376;10.874;2023-12-04T18:26:18;8.85;;;4.35;;
46713;SDS011;32445;51.376;10.874;2023-12-04T18:31:19;8.18;;;4.75;;
46713;SDS011;32445;51.376;10.874;2023-12-04T18:36:20;11.45;;;5.38;;
46713;SDS011;32445;51.376;10.874;2023-12-04T18:41:21;9.23;;;4.20;;
46713;SDS011;32445;51.376;10.874;2023-12-04T18:46:22;9.18;;;5.50;;
46713;SDS011;32445;51.376;10.874;2023-12-04T18:51:25;9.02;;;4.90;;
46713;SDS011;32445;51.376;10.874;2023-12-04T18:56:27;10.50;;;4.85;;
46713;SDS011;32445;51.376;10.874;2023-12-04T19:01:28;9.35;;;4.82;;
46713;SDS011;32445;51.376;10.874;2023-12-04T19:06:29;9.80;;;4.80;;
46713;SDS011;32445;51.376;10.874;2023-12-04T19:11:29;10.70;;;4.63;;
46713;SDS011;32445;51.376;10.874;2023-12-04T19:16:30;8.77;;;4.70;;
46713;SDS011;32445;51.376;10.874;2023-12-04T19:21:33;6.50;;;3.87;;
46713;SDS011;32445;51.376;10.874;2023-12-04T19:26:33;9.13;;;4.15;;
46713;SDS011;32445;51.376;10.874;2023-12-04T19:31:34;10.77;;;5.43;;
46713;SDS011;32445;51.376;10.874;2023-12-04T19:36:34;8.17;;;4.03;;
46713;SDS011;32445;51.376;10.874;2023-12-04T19:41:34;7.77;;;4.13;;
46713;SDS011;32445;51.376;10.874;2023-12-04T19:46:44;8.37;;;4.67;;
46713;SDS011;32445;51.376;10.874;2023-12-04T19:51:44;9.23;;;4.95;;
46713;SDS011;32445;51.376;10.874;2023-12-04T19:56:45;9.03;;;4.70;;
46713;SDS011;32445;51.376;10.874;2023-12-04T20:01:46;9.52;;;4.97;;
46713;SDS011;32445;51.376;10.874;2023-12-04T20:06:46;9.00;;;4.60;;
46713;SDS011;32445;51.376;10.874;2023-12-04T20:11:47;10.93;;;4.63;;
46713;SDS011;32445;51.376;10.874;2023-12-04T20:16:47;7.53;;;4.67;;
46713;SDS011;32445;51.376;10.874;2023-12-04T20:21:49;8.02;;;3.72;;
46713;SDS011;32445;51.376;10.874;2023-12-04T20:26:50;8.60;;;4.23;;
46713;SDS011;32445;51.376;10.874;2023-12-04T20:31:51;10.20;;;4.95;;
46713;SDS011;32445;51.376;10.874;2023-12-04T20:36:52;8.73;;;4.63;;
46713;SDS011;32445;51.376;10.874;2023-12-04T20:41:55;8.82;;;4.65;;
46713;SDS011;32445;51.376;10.874;2023-12-04T20:46:56;9.02;;;4.65;;
46713;SDS011;32445;51.376;10.874;2023-12-04T20:51:56;9.23;;;4.23;;
46713;SDS011;32445;51.376;10.874;2023-12-04T20:56:56;8.03;;;4.17;;
46713;SDS011;32445;51.376;10.874;2023-12-04T21:01:57;7.97;;;4.40;;
46713;SDS011;32445;51.376;10.874;2023-12-04T21:06:58;6.45;;;4.07;;
46713;SDS011;32445;51.376;10.874;2023-12-04T21:11:59;10.25;;;3.95;;
46713;SDS011;32445;51.376;10.874;2023-12-04T21:17:00;5.45;;;3.42;;
46713;SDS011;32445;51.376;10.874;2023-12-04T21:22:00;9.53;;;3.90;;
46713;SDS011;32445;51.376;10.874;2023-12-04T21:27:01;8.87;;;4.23;;
46713;SDS011;32445;51.376;10.874;2023-12-04T21:32:01;10.17;;;4.57;;
46713;SDS011;32445;51.376;10.874;2023-12-04T21:37:01;10.10;;;5.03;;
46713;SDS011;32445;51.376;10.874;2023-12-04T21:42:02;7.80;;;4.10;;
46713;SDS011;32445;51.376;10.874;2023-12-04T21:47:04;10.35;;;5.32;;
46713;SDS011;32445;51.376;10.874;2023-12-04T21:52:04;11.02;;;4.80;;
46713;SDS011;32445;51.376;10.874;2023-12-04T21:57:05;8.23;;;3.80;;
46713;SDS011;32445;51.376;10.874;2023-12-04T22:02:05;9.93;;;4.63;;
46713;SDS011;32445;51.376;10.874;2023-12-04T22:07:06;7.97;;;3.60;;
46713;SDS011;32445;51.376;10.874;2023-12-04T22:12:06;9.93;;;4.87;;
46713;SDS011;32445;51.376;10.874;2023-12-04T22:17:07;7.65;;;4.30;;
46713;SDS011;32445;51.376;10.874;2023-12-04T22:22:07;6.13;;;3.67;;
46713;SDS011;32445;51.376;10.874;2023-12-04T22:27:07;7.80;;;4.73;;
46713;SDS011;32445;51.376;10.874;2023-12-04T22:32:08;8.23;;;4.30;;
46713;SDS011;32445;51.376;10.874;2023-12-04T22:37:08;9.33;;;4.30;;
46713;SDS011;32445;51.376;10.874;2023-12-04T22:42:08;8.07;;;3.90;;
46713;SDS011;32445;51.376;10.874;2023-12-04T22:47:09;8.75;;;4.45;;
46713;SDS011;32445;51.376;10.874;2023-12-04T22:52:09;7.30;;;4.10;;
46713;SDS011;32445;51.376;10.874;2023-12-04T22:57:12;10.00;;;4.85;;
46713;SDS011;32445;51.376;10.874;2023-12-04T23:02:12;7.93;;;4.33;;
46713;SDS011;32445;51.376;10.874;2023-12-04T23:07:13;8.85;;;4.70;;
46713;SDS011;32445;51.376;10.874;2023-12-04T23:12:13;8.53;;;4.40;;
46713;SDS011;32445;51.376;10.874;2023-12-04T23:17:13;10.33;;;4.97;;
46713;SDS011;32445;51.376;10.874;2023-12-04T23:22:14;9.73;;;5.07;;
46713;SDS011;32445;51.376;10.874;2023-12-04T23:27:14;8.93;;;4.70;;
46713;SDS011;32445;51.376;10.874;2023-12-04T23:32:15;9.68;;;5.38;;
46713;SDS011;32445;51.376;10.874;2023-12-04T23:37:15;9.37;;;4.37;;
46713;SDS011;32445;51.376;10.874;2023-12-04T23:42:15;10.43;;;5.40;;
46713;SDS011;32445;51.376;10.874;2023-12-04T23:47:16;11.90;;;5.47;;
46713;SDS011;32445;51.376;10.874;2023-12-04T23:52:16;9.70;;;5.20;;
46713;SDS011;32445;51.376;10.874;2023-12-04T23:57:16;10.53;;;5.63;;
